createdAt,value
2022-11-25T00:01:22.526Z,10.97
2022-11-25T00:03:49.590Z,11.20
2022-11-25T00:06:20.535Z,7.30
2022-11-25T00:08:48.339Z,10.10
2022-11-25T00:11:15.485Z,9.17
2022-11-25T00:13:42.763Z,9.40
2022-11-25T00:16:10.900Z,9.67
2022-11-25T00:18:37.869Z,8.27
2022-11-25T00:21:11.728Z,10.87
2022-11-25T00:23:39.020Z,9.50
2022-11-25T00:26:06.982Z,10.67
2022-11-25T00:28:33.727Z,16.90
2022-11-25T00:31:07.371Z,12.00
2022-11-25T00:33:33.945Z,11.70
2022-11-25T00:36:04.875Z,12.23
2022-11-25T00:38:31.491Z,7.97
2022-11-25T00:41:17.000Z,11.27
2022-11-25T00:44:02.313Z,9.30
2022-11-25T00:46:29.094Z,9.97
2022-11-25T00:48:56.054Z,6.90
2022-11-25T00:51:22.848Z,7.57
2022-11-25T00:53:50.826Z,8.40
2022-11-25T00:56:19.090Z,9.40
2022-11-25T00:58:45.888Z,8.80
2022-11-25T01:01:12.725Z,8.30
2022-11-25T01:03:40.908Z,5.37
2022-11-25T01:06:08.900Z,9.87
2022-11-25T01:08:36.582Z,8.77
2022-11-25T01:11:08.416Z,6.70
2022-11-25T01:13:35.422Z,10.17
2022-11-25T01:16:02.525Z,10.17
2022-11-25T01:18:29.369Z,5.47
2022-11-25T01:20:56.166Z,12.10
2022-11-25T01:23:24.840Z,6.53
2022-11-25T01:25:52.896Z,11.60
2022-11-25T01:28:19.522Z,11.27
2022-11-25T01:30:46.074Z,9.40
2022-11-25T01:33:13.081Z,6.10
2022-11-25T01:35:39.790Z,6.97
2022-11-25T01:38:06.365Z,10.70
2022-11-25T01:40:32.986Z,4.20
2022-11-25T01:42:59.710Z,13.07
2022-11-25T01:45:33.253Z,8.23
2022-11-25T01:48:02.974Z,9.33
2022-11-25T01:50:30.534Z,7.97
2022-11-25T01:52:57.238Z,10.23
2022-11-25T01:55:30.944Z,7.77
2022-11-25T01:57:59.561Z,13.77
2022-11-25T02:00:26.361Z,8.57
2022-11-25T02:02:54.721Z,11.40
2022-11-25T02:05:46.248Z,7.17
2022-11-25T02:08:13.959Z,8.83
2022-11-25T02:10:40.592Z,8.47
2022-11-25T02:13:07.151Z,10.03
2022-11-25T02:15:36.349Z,9.00
2022-11-25T02:18:04.008Z,9.67
2022-11-25T02:20:30.742Z,7.97
2022-11-25T02:23:16.756Z,9.47
2022-11-25T02:25:45.429Z,5.57
2022-11-25T02:28:17.508Z,5.80
2022-11-25T02:30:44.825Z,9.17
2022-11-25T02:33:11.886Z,7.23
2022-11-25T02:35:42.702Z,11.23
2022-11-25T02:38:18.925Z,7.77
2022-11-25T02:40:48.563Z,7.13
2022-11-25T02:43:15.517Z,8.60
2022-11-25T02:45:51.051Z,9.70
2022-11-25T02:48:19.679Z,6.37
2022-11-25T02:50:47.434Z,10.23
2022-11-25T02:53:14.783Z,9.37
2022-11-25T02:55:41.362Z,11.67
2022-11-25T02:58:08.297Z,5.30
2022-11-25T03:00:35.177Z,9.43
2022-11-25T03:03:01.928Z,9.00
2022-11-25T03:05:28.598Z,7.77
2022-11-25T03:07:55.261Z,8.30
2022-11-25T03:10:21.986Z,6.97
2022-11-25T03:12:49.031Z,7.67
2022-11-25T03:15:15.733Z,7.40
2022-11-25T03:17:42.318Z,9.40
2022-11-25T03:20:10.097Z,5.80
2022-11-25T03:22:36.725Z,7.87
2022-11-25T03:25:04.548Z,8.73
2022-11-25T03:27:31.296Z,8.37
2022-11-25T03:29:58.449Z,7.47
2022-11-25T03:32:27.063Z,6.27
2022-11-25T03:34:54.036Z,12.97
2022-11-25T03:37:20.986Z,9.37
2022-11-25T03:39:48.053Z,7.37
2022-11-25T03:42:14.795Z,6.60
2022-11-25T03:44:41.821Z,11.03
2022-11-25T03:47:08.857Z,7.63
2022-11-25T03:49:36.356Z,9.03
2022-11-25T03:52:03.022Z,6.47
2022-11-25T03:54:30.592Z,11.83
2022-11-25T03:57:17.862Z,7.83
2022-11-25T03:59:44.551Z,9.97
2022-11-25T04:02:11.287Z,12.07
2022-11-25T04:04:38.313Z,11.63
2022-11-25T04:07:05.235Z,7.37
2022-11-25T04:09:33.596Z,10.87
2022-11-25T04:12:20.972Z,7.50
2022-11-25T04:15:08.391Z,8.33
2022-11-25T04:17:35.574Z,12.10
2022-11-25T04:20:02.278Z,8.57
2022-11-25T04:22:29.785Z,11.03
2022-11-25T04:24:57.375Z,10.37
2022-11-25T04:27:25.759Z,9.13
2022-11-25T04:29:53.480Z,13.07
2022-11-25T04:32:22.291Z,10.67
2022-11-25T04:34:49.435Z,7.77
2022-11-25T04:37:16.095Z,9.33
2022-11-25T04:39:43.808Z,8.90
2022-11-25T04:42:32.510Z,10.50
2022-11-25T04:45:21.941Z,6.43
2022-11-25T04:47:48.555Z,10.87
2022-11-25T04:50:17.129Z,11.70
2022-11-25T04:52:53.362Z,9.07
2022-11-25T04:55:20.125Z,9.87
2022-11-25T04:57:47.272Z,14.30
2022-11-25T05:00:16.458Z,6.40
2022-11-25T05:02:43.251Z,9.83
2022-11-25T05:05:17.342Z,9.93
2022-11-25T05:07:44.946Z,10.03
2022-11-25T05:10:13.759Z,11.57
2022-11-25T05:12:44.357Z,10.07
2022-11-25T05:15:15.871Z,6.83
2022-11-25T05:17:45.183Z,11.17
2022-11-25T05:20:13.358Z,6.73
2022-11-25T05:22:40.165Z,8.33
2022-11-25T05:25:11.140Z,4.73
2022-11-25T05:27:46.134Z,7.57
2022-11-25T05:30:14.114Z,5.30
2022-11-25T05:32:41.160Z,5.77
2022-11-25T05:35:10.476Z,8.73
2022-11-25T05:37:39.268Z,8.33
2022-11-25T05:40:06.976Z,8.40
2022-11-25T05:42:45.120Z,5.73
2022-11-25T05:45:12.425Z,8.93
2022-11-25T05:47:40.468Z,7.83
2022-11-25T05:50:08.133Z,5.27
2022-11-25T05:52:35.248Z,6.93
2022-11-25T05:55:01.907Z,5.73
2022-11-25T05:57:29.232Z,4.10
2022-11-25T06:00:01.014Z,11.07
2022-11-25T06:02:44.469Z,11.87
2022-11-25T06:05:15.095Z,8.43
2022-11-25T06:07:41.932Z,10.17
2022-11-25T06:10:09.116Z,9.53
2022-11-25T06:12:38.387Z,6.73
2022-11-25T06:15:05.978Z,4.30
2022-11-25T06:17:34.687Z,5.20
2022-11-25T06:20:21.786Z,9.17
2022-11-25T06:22:48.517Z,16.30
2022-11-25T06:25:22.154Z,11.57
2022-11-25T06:28:11.728Z,19.23
2022-11-25T06:30:37.271Z,21.90
2022-11-25T06:33:14.818Z,22.83
2022-11-25T06:35:44.569Z,16.97
2022-11-25T06:38:11.183Z,13.03
2022-11-25T06:40:37.876Z,13.60
2022-11-25T06:43:04.672Z,11.83
2022-11-25T06:45:31.927Z,10.20
2022-11-25T06:47:58.630Z,11.70
2022-11-25T06:50:25.378Z,17.47
2022-11-25T06:52:51.988Z,15.97
2022-11-25T06:55:18.712Z,20.90
2022-11-25T06:57:45.377Z,25.23
2022-11-25T07:00:12.507Z,33.90
2022-11-25T07:02:44.044Z,23.47
2022-11-25T07:05:10.906Z,15.70
2022-11-25T07:07:37.692Z,14.30
2022-11-25T07:10:04.621Z,16.00
2022-11-25T07:12:31.307Z,11.07
2022-11-25T07:14:57.952Z,14.33
2022-11-25T07:17:24.645Z,13.70
2022-11-25T07:19:51.638Z,13.23
2022-11-25T07:22:18.304Z,15.17
2022-11-25T07:24:45.449Z,11.50
2022-11-25T07:27:12.107Z,12.73
2022-11-25T07:32:25.400Z,11.97
2022-11-25T07:34:52.147Z,7.63
2022-11-25T07:37:18.925Z,9.53
2022-11-25T07:39:45.621Z,10.50
2022-11-25T07:42:12.291Z,11.47
2022-11-25T07:44:38.999Z,10.70
2022-11-25T07:47:34.055Z,10.17
2022-11-25T07:50:00.792Z,11.13
2022-11-25T07:52:27.508Z,7.57
2022-11-25T07:54:54.177Z,7.07
2022-11-25T07:57:21.014Z,13.70
2022-11-25T07:59:47.676Z,9.50
2022-11-25T08:02:14.383Z,7.10
2022-11-25T08:04:41.118Z,13.97
2022-11-25T08:07:07.762Z,13.67
2022-11-25T08:09:34.809Z,8.90
2022-11-25T08:12:01.680Z,10.13
2022-11-25T08:14:28.333Z,9.73
2022-11-25T08:16:55.053Z,7.53
2022-11-25T08:19:23.891Z,11.93
2022-11-25T08:21:52.733Z,10.07
2022-11-25T08:24:20.467Z,11.60
2022-11-25T08:26:47.853Z,10.63
2022-11-25T08:29:15.795Z,9.93
2022-11-25T08:31:43.261Z,11.23
2022-11-25T08:34:16.258Z,11.97
2022-11-25T08:36:47.947Z,13.20
2022-11-25T08:39:50.344Z,13.47
2022-11-25T08:42:04.554Z,12.73
2022-11-25T08:44:31.272Z,10.20
2022-11-25T08:46:57.947Z,13.30
2022-11-25T08:49:26.955Z,16.03
2022-11-25T08:51:53.710Z,10.30
2022-11-25T08:54:20.369Z,10.50
2022-11-25T08:56:47.105Z,9.30
2022-11-25T08:59:13.817Z,8.87
2022-11-25T09:01:40.625Z,11.40
2022-11-25T09:04:10.249Z,10.63
2022-11-25T09:06:38.660Z,13.67
2022-11-25T09:09:06.168Z,12.87
2022-11-25T09:11:32.894Z,9.80
2022-11-25T09:13:59.681Z,8.80
2022-11-25T09:16:27.048Z,14.83
2022-11-25T09:18:56.038Z,9.47
2022-11-25T09:21:25.082Z,7.47
2022-11-25T09:23:52.746Z,7.73
2022-11-25T09:26:23.750Z,12.30
2022-11-25T09:28:50.379Z,12.40
2022-11-25T09:31:17.503Z,10.57
2022-11-25T09:33:44.747Z,9.63
2022-11-25T09:36:12.683Z,9.17
2022-11-25T09:38:43.148Z,10.00
2022-11-25T09:41:54.633Z,10.20
2022-11-25T09:45:05.974Z,10.80
2022-11-25T09:47:43.581Z,12.97
2022-11-25T09:50:16.463Z,16.20
2022-11-25T09:52:43.167Z,12.27
2022-11-25T09:55:22.036Z,9.47
2022-11-25T09:57:59.668Z,9.90
2022-11-25T10:00:32.620Z,8.70
2022-11-25T10:03:02.931Z,6.40
2022-11-25T10:05:38.615Z,11.67
2022-11-25T10:08:34.324Z,10.77
2022-11-25T10:11:06.751Z,11.40
2022-11-25T10:13:48.590Z,14.57
2022-11-25T10:16:26.805Z,14.93
2022-11-25T10:18:58.896Z,6.83
2022-11-25T10:21:25.983Z,12.60
2022-11-25T10:23:52.784Z,12.20
2022-11-25T10:26:21.657Z,12.83
2022-11-25T10:28:53.501Z,14.70
2022-11-25T10:31:23.334Z,10.80
2022-11-25T10:33:54.759Z,10.63
2022-11-25T10:36:34.995Z,10.97
2022-11-25T10:39:03.898Z,10.13
2022-11-25T10:41:56.922Z,13.77
2022-11-25T10:44:25.405Z,12.10
2022-11-25T10:47:14.045Z,12.77
2022-11-25T10:49:59.656Z,14.13
2022-11-25T10:52:28.103Z,11.33
2022-11-25T10:55:07.613Z,17.57
2022-11-25T10:57:34.435Z,12.67
2022-11-25T11:00:02.104Z,9.73
2022-11-25T11:02:30.401Z,11.47
2022-11-25T11:05:00.314Z,12.63
2022-11-25T11:07:28.621Z,9.63
2022-11-25T11:10:06.986Z,13.73
2022-11-25T11:12:33.664Z,11.50
2022-11-25T11:15:32.536Z,11.50
2022-11-25T11:18:00.355Z,10.23
2022-11-25T11:20:28.654Z,10.80
2022-11-25T11:23:08.869Z,10.37
2022-11-25T11:25:37.221Z,16.87
2022-11-25T11:28:23.888Z,8.23
2022-11-25T11:30:55.311Z,8.07
2022-11-25T11:33:30.094Z,10.83
2022-11-25T11:36:15.340Z,12.23
2022-11-25T11:38:44.724Z,10.67
2022-11-25T11:41:19.314Z,15.13
2022-11-25T11:43:58.057Z,11.07
2022-11-25T11:46:36.768Z,12.50
2022-11-25T11:49:20.008Z,11.00
2022-11-25T11:51:49.455Z,12.80
2022-11-25T11:54:25.774Z,10.60
2022-11-25T11:57:13.046Z,9.70
2022-11-25T11:59:40.385Z,9.53
2022-11-25T12:02:15.800Z,9.93
2022-11-25T12:05:01.450Z,8.43
2022-11-25T12:07:46.771Z,8.20
2022-11-25T12:10:33.617Z,8.73
2022-11-25T12:13:20.977Z,12.13
2022-11-25T12:16:08.225Z,11.07
2022-11-25T12:18:53.391Z,9.17
2022-11-25T12:21:25.918Z,6.37
2022-11-25T12:24:06.156Z,10.37
2022-11-25T12:26:50.112Z,10.83
2022-11-25T12:29:24.449Z,8.57
2022-11-25T12:31:56.331Z,12.00
2022-11-25T12:34:29.016Z,10.87
2022-11-25T12:37:02.683Z,9.67
2022-11-25T12:39:41.194Z,9.00
2022-11-25T12:42:13.829Z,11.53
2022-11-25T12:44:46.406Z,8.30
2022-11-25T12:47:13.048Z,7.63
2022-11-25T12:49:42.720Z,7.50
2022-11-25T12:52:28.904Z,7.03
2022-11-25T12:55:05.891Z,9.83
2022-11-25T12:57:35.471Z,6.13
2022-11-25T13:00:43.122Z,8.77
2022-11-25T13:03:22.381Z,6.50
2022-11-25T13:05:52.253Z,9.67
2022-11-25T13:08:35.106Z,9.43
2022-11-25T13:11:21.437Z,11.07
2022-11-25T13:13:54.580Z,7.33
2022-11-25T13:16:22.387Z,7.20
2022-11-25T13:18:49.682Z,9.43
2022-11-25T13:21:17.288Z,7.33
2022-11-25T13:23:49.309Z,10.97
2022-11-25T13:26:28.662Z,10.93
2022-11-25T13:28:56.009Z,7.07
2022-11-25T13:31:24.160Z,5.77
2022-11-25T13:34:24.641Z,8.30
2022-11-25T13:36:52.623Z,15.53
2022-11-25T13:39:29.028Z,7.23
2022-11-25T13:41:58.696Z,9.30
2022-11-25T13:44:32.260Z,10.27
2022-11-25T13:47:01.805Z,8.70
2022-11-25T13:49:51.829Z,9.20
2022-11-25T13:52:28.487Z,8.10
2022-11-25T13:54:56.070Z,8.33
2022-11-25T13:57:34.758Z,10.03
2022-11-25T14:00:07.637Z,10.93
2022-11-25T14:02:45.068Z,9.97
2022-11-25T14:05:31.070Z,8.37
2022-11-25T14:08:20.789Z,5.97
2022-11-25T14:11:16.131Z,9.57
2022-11-25T14:14:01.204Z,11.43
2022-11-25T14:16:27.851Z,10.37
2022-11-25T14:19:43.236Z,12.97
2022-11-25T14:21:47.285Z,9.40
2022-11-25T14:24:15.447Z,8.90
2022-11-25T14:26:49.780Z,5.90
2022-11-25T14:29:22.005Z,10.73
2022-11-25T14:31:53.433Z,6.80
2022-11-25T14:34:22.253Z,14.13
2022-11-25T14:42:19.536Z,6.73
2022-11-25T14:44:46.176Z,6.73
2022-11-25T14:47:12.888Z,8.17
2022-11-25T14:49:55.649Z,10.07
2022-11-25T14:52:34.793Z,8.97
2022-11-25T14:55:02.238Z,9.90
2022-11-25T14:57:33.765Z,8.17
2022-11-25T15:00:18.733Z,7.80
2022-11-25T15:02:56.623Z,8.73
2022-11-25T15:05:31.824Z,12.70
2022-11-25T15:08:01.009Z,10.00
2022-11-25T15:10:36.473Z,9.27
2022-11-25T15:13:09.504Z,10.50
2022-11-25T15:15:36.179Z,9.10
2022-11-25T15:18:11.339Z,9.90
2022-11-25T15:20:38.053Z,7.57
2022-11-25T15:23:04.846Z,7.00
2022-11-25T15:25:31.536Z,7.80
2022-11-25T15:27:58.492Z,9.57
2022-11-25T15:30:26.803Z,8.27
2022-11-25T15:32:54.305Z,10.33
2022-11-25T15:35:22.169Z,6.17
2022-11-25T15:37:49.303Z,8.40
2022-11-25T15:40:36.688Z,7.57
2022-11-25T15:43:05.640Z,8.53
2022-11-25T15:45:36.961Z,7.07
2022-11-25T15:48:04.277Z,8.60
2022-11-25T15:50:33.048Z,9.13
2022-11-25T15:53:00.419Z,10.23
2022-11-25T15:55:33.271Z,5.73
2022-11-25T15:58:04.851Z,10.23
2022-11-25T16:00:31.585Z,7.47
2022-11-25T16:02:58.491Z,9.97
2022-11-25T16:05:29.425Z,9.63
2022-11-25T16:07:56.113Z,9.67
2022-11-25T16:10:22.762Z,8.23
2022-11-25T16:13:08.097Z,12.60
2022-11-25T16:16:03.979Z,11.27
2022-11-25T16:18:40.238Z,9.07
2022-11-25T16:21:18.353Z,9.37
2022-11-25T16:23:48.668Z,13.30
2022-11-25T16:26:27.691Z,11.67
2022-11-25T16:28:56.243Z,6.33
2022-11-25T16:31:23.726Z,12.30
2022-11-25T16:33:53.113Z,8.27
2022-11-25T16:36:19.783Z,11.73
2022-11-25T16:38:51.140Z,10.67
2022-11-25T16:41:20.531Z,9.70
2022-11-25T16:43:47.254Z,8.63
2022-11-25T16:46:15.933Z,10.03
2022-11-25T16:48:42.639Z,10.50
2022-11-25T16:51:14.214Z,9.10
2022-11-25T16:53:40.862Z,9.10
2022-11-25T16:56:11.769Z,7.63
2022-11-25T16:58:38.413Z,12.23
2022-11-25T17:01:05.228Z,10.60
2022-11-25T17:03:31.986Z,10.93
2022-11-25T17:06:00.069Z,10.80
2022-11-25T17:08:26.768Z,15.57
2022-11-25T17:10:54.953Z,11.80
2022-11-25T17:13:23.380Z,11.37
2022-11-25T17:15:50.148Z,15.90
2022-11-25T17:18:18.452Z,12.27
2022-11-25T17:20:45.995Z,10.70
2022-11-25T17:23:16.957Z,14.57
2022-11-25T17:25:46.211Z,12.63
2022-11-25T17:28:15.871Z,19.23
2022-11-25T17:30:42.870Z,10.43
2022-11-25T17:33:13.079Z,12.63
2022-11-25T17:35:39.717Z,12.53
2022-11-25T17:38:11.215Z,10.40
2022-11-25T17:40:38.325Z,10.67
2022-11-25T17:43:05.709Z,10.23
2022-11-25T17:45:32.740Z,13.33
2022-11-25T17:47:59.395Z,17.53
2022-11-25T17:50:26.283Z,16.17
2022-11-25T17:52:53.068Z,11.90
2022-11-25T17:55:21.753Z,7.70
2022-11-25T17:57:51.431Z,10.50
2022-11-25T18:00:19.761Z,13.13
2022-11-25T18:02:46.550Z,10.17
2022-11-25T18:05:15.098Z,16.07
2022-11-25T18:07:43.095Z,11.40
2022-11-25T18:10:11.383Z,14.40
2022-11-25T18:12:39.033Z,15.20
2022-11-25T18:15:09.942Z,14.67
2022-11-25T18:17:37.045Z,13.77
2022-11-25T18:20:20.315Z,13.20
2022-11-25T18:22:47.520Z,13.13
2022-11-25T18:25:15.319Z,15.80
2022-11-25T18:27:42.835Z,12.70
2022-11-25T18:30:19.764Z,17.83
2022-11-25T18:32:46.666Z,16.20
2022-11-25T18:35:16.531Z,13.40
2022-11-25T18:37:43.268Z,10.30
2022-11-25T18:40:10.174Z,16.17
2022-11-25T18:42:37.002Z,15.17
2022-11-25T18:45:04.276Z,11.07
2022-11-25T18:47:30.875Z,13.07
2022-11-25T18:49:57.514Z,13.73
2022-11-25T18:52:24.739Z,14.50
2022-11-25T18:54:51.479Z,10.97
2022-11-25T18:57:18.201Z,14.83
2022-11-25T18:59:45.344Z,19.03
2022-11-25T19:02:16.415Z,19.93
2022-11-25T19:04:44.539Z,12.37
2022-11-25T19:07:11.332Z,17.50
2022-11-25T19:09:38.074Z,21.60
2022-11-25T19:12:05.128Z,21.27
2022-11-25T19:14:41.986Z,19.23
2022-11-25T19:17:18.256Z,15.97
2022-11-25T19:19:46.375Z,19.20
2022-11-25T19:22:15.303Z,16.97
2022-11-25T19:24:42.768Z,18.77
2022-11-25T19:27:21.196Z,16.77
2022-11-25T19:29:47.919Z,13.37
2022-11-25T19:32:19.024Z,14.70
2022-11-25T19:34:47.978Z,16.57
2022-11-25T19:37:20.393Z,16.03
2022-11-25T19:39:48.247Z,13.50
2022-11-25T19:42:17.718Z,22.27
2022-11-25T19:44:45.295Z,18.00
2022-11-25T19:47:16.082Z,20.53
2022-11-25T19:49:43.193Z,16.43
2022-11-25T19:52:14.146Z,15.73
2022-11-25T19:54:40.862Z,17.97
2022-11-25T19:57:14.952Z,17.90
2022-11-25T19:59:41.825Z,20.73
2022-11-25T20:02:15.899Z,18.37
2022-11-25T20:04:43.829Z,19.73
2022-11-25T20:07:11.345Z,18.80
2022-11-25T20:09:38.432Z,18.50
2022-11-25T20:12:21.109Z,18.57
2022-11-25T20:14:48.458Z,17.90
2022-11-25T20:17:35.447Z,15.37
2022-11-25T20:20:05.304Z,15.83
2022-11-25T20:22:34.483Z,16.00
2022-11-25T20:25:02.490Z,23.17
2022-11-25T20:27:29.958Z,14.67
2022-11-25T20:29:56.638Z,19.13
2022-11-25T20:32:28.737Z,23.30
2022-11-25T20:34:56.052Z,20.33
2022-11-25T20:37:26.053Z,14.87
2022-11-25T20:39:54.197Z,15.57
2022-11-25T20:42:21.865Z,26.67
2022-11-25T20:44:52.143Z,23.97
2022-11-25T20:47:25.168Z,22.93
2022-11-25T20:49:51.955Z,16.10
2022-11-25T20:52:21.417Z,22.33
2022-11-25T20:54:48.494Z,27.90
2022-11-25T20:57:15.213Z,20.20
2022-11-25T20:59:44.269Z,20.13
2022-11-25T21:02:11.256Z,18.57
2022-11-25T21:04:38.287Z,17.70
2022-11-25T21:07:06.806Z,20.00
2022-11-25T21:09:35.018Z,22.33
2022-11-25T21:12:02.080Z,17.30
2022-11-25T21:14:29.129Z,17.30
2022-11-25T21:16:55.739Z,19.53
2022-11-25T21:19:22.313Z,19.40
2022-11-25T21:21:50.429Z,22.83
2022-11-25T21:24:34.379Z,21.57
2022-11-25T21:27:02.696Z,19.93
2022-11-25T21:29:29.893Z,26.03
2022-11-25T21:31:56.698Z,14.73
2022-11-25T21:34:23.414Z,20.90
2022-11-25T21:36:51.811Z,22.03
2022-11-25T21:39:25.318Z,29.43
2022-11-25T21:41:53.012Z,25.23
2022-11-25T21:44:31.202Z,21.07
2022-11-25T21:46:57.950Z,23.27
2022-11-25T21:49:25.622Z,26.20
2022-11-25T21:51:54.730Z,26.70
2022-11-25T21:54:21.297Z,21.27
2022-11-25T21:56:48.045Z,29.13
2022-11-25T21:59:17.699Z,23.57
2022-11-25T22:01:44.432Z,20.37
2022-11-25T22:04:15.129Z,25.37
2022-11-25T22:06:41.723Z,28.17
2022-11-25T22:09:08.598Z,27.73
2022-11-25T22:11:39.378Z,29.83
2022-11-25T22:14:07.678Z,26.57
2022-11-25T22:16:34.981Z,21.13
2022-11-25T22:19:01.918Z,27.07
2022-11-25T22:21:28.598Z,31.23
2022-11-25T22:23:55.222Z,28.70
2022-11-25T22:26:32.077Z,22.37
2022-11-25T22:29:00.021Z,32.63
2022-11-25T22:31:27.407Z,19.90
2022-11-25T22:33:54.530Z,25.40
2022-11-25T22:36:35.277Z,30.00
2022-11-25T22:39:22.136Z,27.67
2022-11-25T22:41:51.850Z,26.83
2022-11-25T22:44:23.237Z,38.83
2022-11-25T22:46:50.813Z,28.37
2022-11-25T22:49:38.847Z,25.33
2022-11-25T22:52:06.190Z,24.67
2022-11-25T22:54:32.872Z,28.87
2022-11-25T22:57:00.112Z,26.50
2022-11-25T22:59:26.763Z,27.47
2022-11-25T23:01:53.549Z,31.53
2022-11-25T23:04:22.813Z,29.70
2022-11-25T23:06:49.676Z,29.17
2022-11-25T23:09:18.101Z,24.77
2022-11-25T23:11:45.368Z,23.57
2022-11-25T23:14:12.211Z,27.17
2022-11-25T23:16:39.696Z,30.03
2022-11-25T23:19:07.007Z,28.83
2022-11-25T23:21:33.694Z,33.30
2022-11-25T23:24:00.304Z,29.77
2022-11-25T23:26:29.810Z,25.43
2022-11-25T23:29:00.209Z,26.73
2022-11-25T23:31:26.825Z,25.77
2022-11-25T23:33:53.543Z,27.53
2022-11-25T23:36:52.681Z,24.80
2022-11-25T23:39:20.966Z,26.50
2022-11-25T23:41:47.620Z,28.23
2022-11-25T23:44:22.788Z,27.57
2022-11-25T23:46:49.664Z,28.00
2022-11-25T23:49:25.241Z,28.17
2022-11-25T23:51:52.449Z,28.37
2022-11-25T23:54:20.998Z,25.07
2022-11-25T23:56:47.771Z,31.57
2022-11-25T23:59:15.235Z,28.20
